createdAt,value
2022-11-30T00:01:36.980Z,15.48
2022-11-30T00:04:39.206Z,12.27
2022-11-30T00:07:41.560Z,16.60
2022-11-30T00:10:44.213Z,13.98
2022-11-30T00:13:47.174Z,12.15
2022-11-30T00:16:49.396Z,10.23
2022-11-30T00:19:51.596Z,11.77
2022-11-30T00:22:55.010Z,12.45
2022-11-30T00:26:00.997Z,15.55
2022-11-30T00:29:03.279Z,14.02
2022-11-30T00:32:05.690Z,21.33
2022-11-30T00:35:08.377Z,13.60
2022-11-30T00:38:10.578Z,14.20
2022-11-30T00:41:12.956Z,15.23
2022-11-30T00:44:15.151Z,9.90
2022-11-30T00:47:17.320Z,18.02
2022-11-30T00:50:19.496Z,9.00
2022-11-30T00:53:21.882Z,10.93
2022-11-30T00:56:24.970Z,12.63
2022-11-30T00:59:27.314Z,10.88
2022-11-30T01:02:29.577Z,16.48
2022-11-30T01:05:35.475Z,13.68
2022-11-30T01:08:37.632Z,12.30
2022-11-30T01:11:39.853Z,9.52
2022-11-30T01:14:42.053Z,9.73
2022-11-30T01:17:44.384Z,10.73
2022-11-30T01:20:46.561Z,9.98
2022-11-30T01:23:49.372Z,11.30
2022-11-30T01:26:51.552Z,10.88
2022-11-30T01:29:53.733Z,12.37
2022-11-30T01:32:56.002Z,10.40
2022-11-30T01:36:14.398Z,11.02
2022-11-30T01:39:16.544Z,13.52
2022-11-30T01:42:20.106Z,8.93
2022-11-30T01:45:22.463Z,10.57
2022-11-30T01:48:24.683Z,9.77
2022-11-30T01:51:30.000Z,12.18
2022-11-30T01:54:53.752Z,10.57
2022-11-30T01:58:16.943Z,11.65
2022-11-30T02:01:19.198Z,8.15
2022-11-30T02:04:32.836Z,10.98
2022-11-30T02:07:35.340Z,8.18
2022-11-30T02:10:41.112Z,8.48
2022-11-30T02:13:58.589Z,10.63
2022-11-30T02:17:12.696Z,7.32
2022-11-30T02:20:30.465Z,24.90
2022-11-30T02:23:41.201Z,15.48
2022-11-30T02:29:55.245Z,9.52
2022-11-30T02:33:15.289Z,6.70
2022-11-30T02:36:18.241Z,8.95
2022-11-30T02:39:22.192Z,8.10
2022-11-30T02:42:24.380Z,8.35
2022-11-30T02:45:47.110Z,10.48
2022-11-30T02:48:57.028Z,10.00
2022-11-30T02:52:00.445Z,12.65
2022-11-30T02:55:05.475Z,10.52
2022-11-30T02:58:07.843Z,11.15
2022-11-30T03:01:10.064Z,8.13
2022-11-30T03:04:12.253Z,8.82
2022-11-30T03:07:14.485Z,6.65
2022-11-30T03:10:16.951Z,5.50
2022-11-30T03:13:19.110Z,9.27
2022-11-30T03:16:21.400Z,6.87
2022-11-30T03:19:23.932Z,10.75
2022-11-30T03:22:26.119Z,8.52
2022-11-30T03:25:29.052Z,10.68
2022-11-30T03:28:31.405Z,13.70
2022-11-30T03:31:33.728Z,10.38
2022-11-30T03:34:35.940Z,6.47
2022-11-30T03:37:38.107Z,6.82
2022-11-30T03:40:40.272Z,8.55
2022-11-30T03:43:46.527Z,6.55
2022-11-30T03:46:48.817Z,7.15
2022-11-30T03:49:51.112Z,5.18
2022-11-30T03:52:53.312Z,9.60
2022-11-30T03:56:00.653Z,9.15
2022-11-30T03:59:02.984Z,9.80
2022-11-30T04:02:05.169Z,9.02
2022-11-30T04:05:07.709Z,7.30
2022-11-30T04:08:09.968Z,6.90
2022-11-30T04:11:12.167Z,7.90
2022-11-30T04:14:14.325Z,7.65
2022-11-30T04:17:16.472Z,12.02
2022-11-30T04:20:18.717Z,8.75
2022-11-30T04:23:21.625Z,10.63
2022-11-30T04:26:23.810Z,12.43
2022-11-30T04:29:26.206Z,14.27
2022-11-30T04:32:28.457Z,8.93
2022-11-30T04:35:30.627Z,11.38
2022-11-30T04:38:34.401Z,14.43
2022-11-30T04:41:36.613Z,6.47
2022-11-30T04:44:38.715Z,6.03
2022-11-30T04:47:41.070Z,6.90
2022-11-30T04:50:43.324Z,9.93
2022-11-30T04:53:45.536Z,7.95
2022-11-30T04:56:47.761Z,8.32
2022-11-30T04:59:50.110Z,6.60
2022-11-30T05:02:53.309Z,12.45
2022-11-30T05:05:55.649Z,6.70
2022-11-30T05:08:57.853Z,5.45
2022-11-30T05:12:00.116Z,7.85
2022-11-30T05:15:02.277Z,7.68
2022-11-30T05:18:04.488Z,8.13
2022-11-30T05:21:06.935Z,9.40
2022-11-30T05:24:09.326Z,6.03
2022-11-30T05:27:16.543Z,5.50
2022-11-30T05:30:22.020Z,9.15
2022-11-30T05:33:24.183Z,6.70
2022-11-30T05:36:26.375Z,8.32
2022-11-30T05:39:28.626Z,9.60
2022-11-30T05:42:30.821Z,7.05
2022-11-30T05:45:33.040Z,7.70
2022-11-30T05:48:36.412Z,5.50
2022-11-30T05:51:40.138Z,8.55
2022-11-30T05:54:42.307Z,5.62
2022-11-30T05:57:44.550Z,6.43
2022-11-30T06:00:46.676Z,7.82
2022-11-30T06:03:49.339Z,5.22
2022-11-30T06:06:55.551Z,8.02
2022-11-30T06:09:58.038Z,9.57
2022-11-30T06:13:06.582Z,7.70
2022-11-30T06:16:09.435Z,7.97
2022-11-30T06:19:11.683Z,9.15
2022-11-30T06:22:13.860Z,10.13
2022-11-30T06:25:16.106Z,9.02
2022-11-30T06:28:18.255Z,5.97
2022-11-30T06:31:20.532Z,6.43
2022-11-30T06:34:22.739Z,7.22
2022-11-30T06:37:24.949Z,12.73
2022-11-30T06:40:27.973Z,11.75
2022-11-30T06:43:36.200Z,9.02
2022-11-30T06:46:38.408Z,7.37
2022-11-30T06:49:40.568Z,11.82
2022-11-30T06:52:42.737Z,6.30
2022-11-30T06:55:44.921Z,9.10
2022-11-30T06:58:47.141Z,8.32
2022-11-30T07:01:49.318Z,9.20
2022-11-30T07:04:51.491Z,9.32
2022-11-30T07:07:53.692Z,9.13
2022-11-30T07:10:55.906Z,7.82
2022-11-30T07:13:58.073Z,8.43
2022-11-30T07:17:04.789Z,11.73
2022-11-30T07:20:07.615Z,5.28
2022-11-30T07:23:32.946Z,6.30
2022-11-30T07:26:35.136Z,12.18
2022-11-30T07:29:37.293Z,10.30
2022-11-30T07:32:39.555Z,7.55
2022-11-30T07:35:41.682Z,7.35
2022-11-30T07:38:44.252Z,36.15
2022-11-30T07:41:46.528Z,38.80
2022-11-30T07:44:53.790Z,27.02
2022-11-30T07:47:59.522Z,18.12
2022-11-30T07:51:03.984Z,22.42
2022-11-30T07:54:06.325Z,21.55
2022-11-30T07:57:08.480Z,12.25
2022-11-30T08:00:11.517Z,17.00
2022-11-30T08:03:13.709Z,9.30
2022-11-30T08:06:24.270Z,12.40
2022-11-30T08:09:26.472Z,11.45
2022-11-30T08:12:28.656Z,8.77
2022-11-30T08:15:33.376Z,6.45
2022-11-30T08:18:36.447Z,11.65
2022-11-30T08:21:38.628Z,18.08
2022-11-30T08:24:40.802Z,13.55
2022-11-30T08:27:43.052Z,8.73
2022-11-30T08:30:45.406Z,10.27
2022-11-30T08:33:48.068Z,7.50
2022-11-30T08:36:52.219Z,9.77
2022-11-30T08:39:54.369Z,14.38
2022-11-30T08:42:58.883Z,7.62
2022-11-30T08:46:27.504Z,10.32
2022-11-30T08:49:28.877Z,11.38
2022-11-30T08:52:31.028Z,14.25
2022-11-30T08:55:33.206Z,5.25
2022-11-30T08:58:37.121Z,8.52
2022-11-30T09:01:39.274Z,5.30
2022-11-30T09:04:41.415Z,9.07
2022-11-30T09:07:43.688Z,7.85
2022-11-30T09:10:45.888Z,5.70
2022-11-30T09:13:48.896Z,8.07
2022-11-30T09:16:51.081Z,5.30
2022-11-30T09:19:54.681Z,6.07
2022-11-30T09:22:59.494Z,6.00
2022-11-30T09:26:03.459Z,5.57
2022-11-30T09:29:05.622Z,10.60
2022-11-30T09:32:07.810Z,3.62
2022-11-30T09:35:12.738Z,7.35
2022-11-30T09:38:15.334Z,4.70
2022-11-30T09:41:23.205Z,4.60
2022-11-30T09:44:59.394Z,6.40
2022-11-30T09:48:04.330Z,5.07
2022-11-30T09:51:11.655Z,5.10
2022-11-30T09:54:16.368Z,3.22
2022-11-30T09:57:18.475Z,3.47
2022-11-30T10:00:22.909Z,6.45
2022-11-30T10:03:25.679Z,5.45
2022-11-30T10:06:42.758Z,5.37
2022-11-30T10:10:30.454Z,9.15
2022-11-30T10:13:27.897Z,9.32
2022-11-30T10:16:54.915Z,5.78
2022-11-30T10:20:07.068Z,7.03
2022-11-30T10:23:31.218Z,8.30
2022-11-30T10:26:37.136Z,7.90
2022-11-30T10:29:40.924Z,7.45
2022-11-30T10:32:46.392Z,5.37
2022-11-30T10:35:51.963Z,5.43
2022-11-30T10:39:00.178Z,6.68
2022-11-30T10:42:23.065Z,10.75
2022-11-30T10:45:26.825Z,4.05
2022-11-30T10:48:34.904Z,9.20
2022-11-30T10:51:38.858Z,26.85
2022-11-30T10:54:41.035Z,6.70
2022-11-30T10:57:43.723Z,5.80
2022-11-30T11:00:56.168Z,4.18
2022-11-30T11:04:19.427Z,10.25
2022-11-30T11:07:21.730Z,6.15
2022-11-30T11:10:37.042Z,7.03
2022-11-30T11:13:42.404Z,10.52
2022-11-30T11:17:05.962Z,5.97
2022-11-30T11:20:28.462Z,5.65
2022-11-30T11:23:37.710Z,8.57
2022-11-30T11:26:49.564Z,3.67
2022-11-30T11:30:16.865Z,15.88
2022-11-30T11:33:24.699Z,6.70
2022-11-30T11:36:29.551Z,5.55
2022-11-30T11:39:31.707Z,7.82
2022-11-30T11:42:47.494Z,6.75
2022-11-30T11:45:52.866Z,8.90
2022-11-30T11:49:02.888Z,6.15
2022-11-30T11:52:05.059Z,5.00
2022-11-30T11:55:13.648Z,3.65
2022-11-30T11:58:22.448Z,6.05
2022-11-30T12:01:53.925Z,5.35
2022-11-30T12:05:01.607Z,3.85
2022-11-30T12:08:13.811Z,4.45
2022-11-30T12:11:22.833Z,4.68
2022-11-30T12:14:25.557Z,9.52
2022-11-30T12:17:39.896Z,4.07
2022-11-30T12:20:47.930Z,4.00
2022-11-30T12:24:15.228Z,7.20
2022-11-30T12:27:39.177Z,4.57
2022-11-30T12:30:56.667Z,2.75
2022-11-30T12:34:11.534Z,4.30
2022-11-30T12:37:47.310Z,2.53
2022-11-30T12:40:56.174Z,3.40
2022-11-30T12:44:10.760Z,3.45
2022-11-30T12:47:34.692Z,2.45
2022-11-30T12:50:39.954Z,2.83
2022-11-30T12:53:56.377Z,3.33
2022-11-30T12:57:13.267Z,2.72
2022-11-30T13:00:22.838Z,2.22
2022-11-30T13:03:48.657Z,3.55
2022-11-30T13:07:21.439Z,2.87
2022-11-30T13:10:43.494Z,2.62
2022-11-30T13:13:57.574Z,1.87
2022-11-30T13:17:02.711Z,3.40
2022-11-30T13:20:41.284Z,2.05
2022-11-30T13:24:04.964Z,2.25
2022-11-30T13:27:11.185Z,3.62
2022-11-30T13:30:32.157Z,3.35
2022-11-30T13:33:34.635Z,3.17
2022-11-30T13:36:41.547Z,3.72
2022-11-30T13:39:54.426Z,2.62
2022-11-30T13:42:57.017Z,2.22
2022-11-30T13:46:07.078Z,2.47
2022-11-30T13:49:23.725Z,2.60
2022-11-30T13:52:58.470Z,5.10
2022-11-30T13:56:06.617Z,4.10
2022-11-30T13:59:23.901Z,3.40
2022-11-30T14:06:05.775Z,2.22
2022-11-30T14:09:16.628Z,7.07
2022-11-30T14:12:37.653Z,3.22
2022-11-30T14:15:40.659Z,5.45
2022-11-30T14:18:44.072Z,4.05
2022-11-30T14:21:46.702Z,5.03
2022-11-30T14:24:49.414Z,2.62
2022-11-30T14:27:53.259Z,5.05
2022-11-30T14:30:56.012Z,3.67
2022-11-30T14:34:02.856Z,5.10
2022-11-30T14:37:31.903Z,2.15
2022-11-30T14:40:34.073Z,2.65
2022-11-30T14:43:36.469Z,2.65
2022-11-30T14:46:39.224Z,28.73
2022-11-30T14:49:49.196Z,16.17
2022-11-30T14:53:19.707Z,4.90
2022-11-30T14:56:31.697Z,5.47
2022-11-30T14:59:50.625Z,7.55
2022-11-30T15:02:53.071Z,11.25
2022-11-30T15:06:01.154Z,71.10
2022-11-30T15:09:03.705Z,102.22
2022-11-30T15:12:06.116Z,49.08
2022-11-30T15:15:20.201Z,44.92
2022-11-30T15:18:24.620Z,24.02
2022-11-30T15:21:32.188Z,20.85
2022-11-30T15:24:34.460Z,28.50
2022-11-30T15:27:36.660Z,58.75
2022-11-30T15:30:41.458Z,21.60
2022-11-30T15:33:46.332Z,11.60
2022-11-30T15:36:48.677Z,18.52
2022-11-30T15:39:57.438Z,14.98
2022-11-30T15:43:00.789Z,17.30
2022-11-30T15:46:03.664Z,13.30
2022-11-30T15:49:21.289Z,14.48
2022-11-30T15:52:30.858Z,11.82
2022-11-30T15:56:06.788Z,15.40
2022-11-30T15:59:11.925Z,15.23
2022-11-30T16:02:46.679Z,26.77
2022-11-30T16:05:57.190Z,21.12
2022-11-30T16:09:05.860Z,13.95
2022-11-30T16:12:17.839Z,20.98
2022-11-30T16:15:26.518Z,22.52
2022-11-30T16:18:28.957Z,26.95
2022-11-30T16:21:31.200Z,15.98
2022-11-30T16:24:33.394Z,15.02
2022-11-30T16:27:35.686Z,81.37
2022-11-30T16:30:38.523Z,64.43
2022-11-30T16:33:40.727Z,103.43
2022-11-30T16:36:42.992Z,77.53
2022-11-30T16:39:45.451Z,30.62
2022-11-30T16:42:51.783Z,61.85
2022-11-30T16:45:54.290Z,51.20
2022-11-30T16:48:58.819Z,57.90
2022-11-30T16:52:01.111Z,49.42
2022-11-30T16:55:03.826Z,42.15
2022-11-30T16:58:06.340Z,35.70
2022-11-30T17:01:17.758Z,51.72
2022-11-30T17:04:22.950Z,61.92
2022-11-30T17:07:25.352Z,52.10
2022-11-30T17:10:27.779Z,38.63
2022-11-30T17:13:30.347Z,53.08
2022-11-30T17:16:33.349Z,90.47
2022-11-30T17:19:35.900Z,71.35
2022-11-30T17:22:40.068Z,78.50
2022-11-30T17:25:42.785Z,46.58
2022-11-30T17:28:44.984Z,50.90
2022-11-30T17:31:47.213Z,56.47
2022-11-30T17:34:49.740Z,109.72
2022-11-30T17:37:53.483Z,182.88
2022-11-30T17:40:55.659Z,149.90
2022-11-30T17:43:57.807Z,131.87
2022-11-30T17:47:00.208Z,103.55
2022-11-30T17:50:02.470Z,72.62
2022-11-30T17:53:05.826Z,89.45
2022-11-30T17:56:18.269Z,45.12
2022-11-30T17:59:20.590Z,57.08
2022-11-30T18:02:23.179Z,42.15
2022-11-30T18:05:25.737Z,48.85
2022-11-30T18:08:29.231Z,68.50
2022-11-30T18:11:31.639Z,56.85
2022-11-30T18:14:33.824Z,63.70
2022-11-30T18:17:36.259Z,69.05
2022-11-30T18:20:39.024Z,43.85
2022-11-30T18:23:41.515Z,58.20
2022-11-30T18:26:43.991Z,34.03
2022-11-30T18:29:46.608Z,36.50
2022-11-30T18:32:49.253Z,70.00
2022-11-30T18:35:51.745Z,44.85
2022-11-30T18:38:56.066Z,35.42
2022-11-30T18:41:58.566Z,69.55
2022-11-30T18:45:01.103Z,55.60
2022-11-30T18:48:03.541Z,43.85
2022-11-30T18:51:13.500Z,42.10
2022-11-30T18:54:15.964Z,51.80
2022-11-30T18:57:28.326Z,34.75
2022-11-30T19:00:30.665Z,25.88
2022-11-30T19:03:33.112Z,35.47
2022-11-30T19:06:37.597Z,31.58
2022-11-30T19:09:39.802Z,24.35
2022-11-30T19:12:42.505Z,23.80
2022-11-30T19:15:44.964Z,24.08
2022-11-30T19:18:47.264Z,35.30
2022-11-30T19:21:49.781Z,41.75
2022-11-30T19:24:52.242Z,25.20
2022-11-30T19:27:55.019Z,27.35
2022-11-30T19:30:58.539Z,21.75
2022-11-30T19:34:02.218Z,21.50
2022-11-30T19:37:04.654Z,87.15
2022-11-30T19:40:07.800Z,108.45
2022-11-30T19:43:10.075Z,165.00
2022-11-30T19:46:15.444Z,53.75
2022-11-30T19:49:17.994Z,30.12
2022-11-30T19:52:20.487Z,18.92
2022-11-30T19:55:23.014Z,15.65
2022-11-30T19:58:27.135Z,18.95
2022-11-30T20:01:29.717Z,27.42
2022-11-30T20:04:32.021Z,19.90
2022-11-30T20:07:35.558Z,17.10
2022-11-30T20:10:40.160Z,24.75
2022-11-30T20:13:51.512Z,18.83
2022-11-30T20:16:53.713Z,31.23
2022-11-30T20:19:56.230Z,37.60
2022-11-30T20:22:58.718Z,35.75
2022-11-30T20:26:01.069Z,43.10
2022-11-30T20:29:04.890Z,31.55
2022-11-30T20:32:07.419Z,34.58
2022-11-30T20:35:10.471Z,32.13
2022-11-30T20:38:12.943Z,40.92
2022-11-30T20:41:20.620Z,32.17
2022-11-30T20:44:23.109Z,28.67
2022-11-30T20:47:26.023Z,31.12
2022-11-30T20:50:28.429Z,38.22
2022-11-30T20:53:30.873Z,40.42
2022-11-30T20:56:35.246Z,40.12
2022-11-30T20:59:37.910Z,31.27
2022-11-30T21:02:40.297Z,39.47
2022-11-30T21:05:45.335Z,14.60
2022-11-30T21:08:47.737Z,25.40
2022-11-30T21:11:50.078Z,27.52
2022-11-30T21:14:52.218Z,29.15
2022-11-30T21:17:54.593Z,26.15
2022-11-30T21:21:09.800Z,25.30
2022-11-30T21:24:12.626Z,18.12
2022-11-30T21:27:14.937Z,18.40
2022-11-30T21:30:17.203Z,26.85
2022-11-30T21:33:19.390Z,15.02
2022-11-30T21:36:22.383Z,12.27
2022-11-30T21:39:24.615Z,17.23
2022-11-30T21:42:26.835Z,18.02
2022-11-30T21:45:29.029Z,20.77
2022-11-30T21:48:33.261Z,114.15
2022-11-30T21:51:35.829Z,63.38
2022-11-30T21:54:38.003Z,54.00
2022-11-30T21:57:40.133Z,42.97
2022-11-30T22:00:42.397Z,32.67
2022-11-30T22:03:44.963Z,37.35
2022-11-30T22:06:47.349Z,42.97
2022-11-30T22:09:49.627Z,37.33
2022-11-30T22:12:51.996Z,30.40
2022-11-30T22:16:02.294Z,36.10
2022-11-30T22:19:06.003Z,32.67
2022-11-30T22:22:08.184Z,31.05
2022-11-30T22:25:10.378Z,22.33
2022-11-30T22:28:12.554Z,38.67
2022-11-30T22:31:16.321Z,35.75
2022-11-30T22:34:19.566Z,41.72
2022-11-30T22:37:21.764Z,56.05
2022-11-30T22:40:23.974Z,27.73
2022-11-30T22:43:26.120Z,34.72
2022-11-30T22:46:30.923Z,28.95
2022-11-30T22:49:33.301Z,19.45
2022-11-30T22:53:01.545Z,14.48
2022-11-30T22:56:18.568Z,10.75
2022-11-30T22:59:21.032Z,16.60
2022-11-30T23:02:23.172Z,18.20
2022-11-30T23:05:25.298Z,19.87
2022-11-30T23:08:28.996Z,10.85
2022-11-30T23:11:31.328Z,17.62
2022-11-30T23:14:33.439Z,20.12
2022-11-30T23:17:35.576Z,24.20
2022-11-30T23:20:37.806Z,16.92
2022-11-30T23:23:43.807Z,15.63
2022-11-30T23:26:46.395Z,15.90
2022-11-30T23:29:48.632Z,20.42
2022-11-30T23:32:55.069Z,19.92
2022-11-30T23:35:57.234Z,14.93
2022-11-30T23:39:01.779Z,20.02
2022-11-30T23:42:04.173Z,19.27
2022-11-30T23:45:06.914Z,14.98
2022-11-30T23:48:10.352Z,17.98
2022-11-30T23:51:12.487Z,11.93
2022-11-30T23:54:14.620Z,12.10
2022-11-30T23:57:16.765Z,24.50
